createdAt,value
2023-02-19T00:01:25.000Z,96682.50
2023-02-19T00:03:53.271Z,96676.25
2023-02-19T00:06:20.368Z,96671.03
2023-02-19T00:08:46.829Z,96670.97
2023-02-19T00:11:14.353Z,96668.38
2023-02-19T00:13:42.046Z,96663.06
2023-02-19T00:16:09.186Z,96668.38
2023-02-19T00:18:35.636Z,96664.88
2023-02-19T00:21:02.671Z,96657.00
2023-02-19T00:23:30.469Z,96659.56
2023-02-19T00:26:01.097Z,96655.94
2023-02-19T00:28:36.344Z,96657.75
2023-02-19T00:31:10.090Z,96657.75
2023-02-19T00:33:36.869Z,96654.25
2023-02-19T00:36:04.072Z,96650.63
2023-02-19T00:38:32.379Z,96651.59
2023-02-19T00:40:59.176Z,96647.13
2023-02-19T00:43:25.989Z,96644.47
2023-02-19T00:45:53.499Z,96645.34
2023-02-19T00:48:20.548Z,96643.56
2023-02-19T00:50:47.004Z,96640.91
2023-02-19T00:53:14.052Z,96640.91
2023-02-19T00:55:40.481Z,96643.56
2023-02-19T00:58:06.959Z,96638.25
2023-02-19T01:00:33.714Z,96640.78
2023-02-19T01:03:00.238Z,96640.91
2023-02-19T01:05:26.669Z,96638.13
2023-02-19T01:07:53.918Z,96633.69
2023-02-19T01:10:20.658Z,96633.78
2023-02-19T01:12:47.256Z,96630.16
2023-02-19T01:15:13.790Z,96631.88
2023-02-19T01:17:40.624Z,96626.56
2023-02-19T01:20:07.303Z,96618.59
2023-02-19T01:22:33.854Z,96622.19
2023-02-19T01:25:00.297Z,96616.78
2023-02-19T01:27:26.796Z,96614.13
2023-02-19T01:29:54.373Z,96616.78
2023-02-19T01:32:20.881Z,96602.66
2023-02-19T01:34:47.439Z,96606.16
2023-02-19T01:37:14.204Z,96599.16
2023-02-19T01:39:40.897Z,96601.81
2023-02-19T01:42:12.333Z,96600.00
2023-02-19T01:44:38.777Z,96589.47
2023-02-19T01:47:05.796Z,96586.72
2023-02-19T01:49:34.749Z,96583.22
2023-02-19T01:52:06.226Z,96573.47
2023-02-19T01:54:34.220Z,96575.25
2023-02-19T01:57:00.812Z,96574.38
2023-02-19T01:59:27.304Z,96569.97
2023-02-19T02:01:54.892Z,96573.47
2023-02-19T02:04:22.597Z,96570.03
2023-02-19T02:06:49.944Z,96566.34
2023-02-19T02:09:35.169Z,96561.09
2023-02-19T02:12:01.789Z,96559.41
2023-02-19T02:14:29.150Z,96568.16
2023-02-19T02:17:04.288Z,96558.44
2023-02-19T02:19:37.004Z,96556.69
2023-02-19T02:22:15.832Z,96554.88
2023-02-19T02:24:49.219Z,96546.06
2023-02-19T02:27:16.076Z,96542.44
2023-02-19T02:30:02.070Z,96538.94
2023-02-19T02:32:39.294Z,96534.56
2023-02-19T02:35:07.839Z,96531.91
2023-02-19T02:37:35.539Z,96536.28
2023-02-19T02:40:02.653Z,96534.47
2023-02-19T02:42:30.659Z,96526.50
2023-02-19T02:45:38.037Z,96531.81
2023-02-19T02:48:31.775Z,96520.34
2023-02-19T02:50:58.208Z,96499.94
2023-02-19T02:53:43.951Z,96493.78
2023-02-19T02:56:10.565Z,96501.75
2023-02-19T02:58:37.083Z,96492.94
2023-02-19T03:01:26.061Z,96500.03
2023-02-19T03:03:55.057Z,96495.69
2023-02-19T03:06:21.805Z,96487.63
2023-02-19T03:08:57.023Z,96492.06
2023-02-19T03:11:42.657Z,96484.97
2023-02-19T03:14:30.040Z,96477.00
2023-02-19T03:17:16.233Z,96482.31
2023-02-19T03:19:43.337Z,96485.81
2023-02-19T03:22:12.137Z,96489.41
2023-02-19T03:25:00.109Z,96474.34
2023-02-19T03:27:27.131Z,96474.34
2023-02-19T03:29:55.131Z,96477.84
2023-02-19T03:32:29.457Z,96469.88
2023-02-19T03:34:57.948Z,96466.38
2023-02-19T03:37:27.074Z,96465.41
2023-02-19T03:39:53.819Z,96469.88
2023-02-19T03:42:23.354Z,96466.38
2023-02-19T03:44:56.556Z,96485.81
2023-02-19T03:47:30.444Z,96482.31
2023-02-19T03:49:57.089Z,96481.44
2023-02-19T03:52:23.687Z,96474.34
2023-02-19T03:55:03.300Z,96469.88
2023-02-19T03:57:36.474Z,96466.25
2023-02-19T04:00:36.260Z,96471.69
2023-02-19T04:03:02.971Z,96465.50
2023-02-19T04:05:29.987Z,96462.00
2023-02-19T04:08:02.891Z,96467.22
2023-02-19T04:10:34.863Z,96482.31
2023-02-19T04:13:05.902Z,96472.53
2023-02-19T04:15:33.800Z,96470.72
2023-02-19T04:18:00.895Z,96470.81
2023-02-19T04:20:27.922Z,96475.19
2023-02-19T04:22:54.366Z,96464.56
2023-02-19T04:25:20.842Z,96478.78
2023-02-19T04:27:47.305Z,96475.19
2023-02-19T04:30:14.370Z,96479.66
2023-02-19T04:32:41.070Z,96488.47
2023-02-19T04:35:07.773Z,96479.66
2023-02-19T04:37:34.197Z,96487.50
2023-02-19T04:40:00.733Z,96495.47
2023-02-19T04:42:27.697Z,96504.31
2023-02-19T04:44:54.218Z,96494.63
2023-02-19T04:47:20.830Z,96495.47
2023-02-19T04:49:47.336Z,96504.31
2023-02-19T04:52:13.767Z,96500.69
2023-02-19T04:54:40.266Z,96500.69
2023-02-19T04:57:06.701Z,96496.22
2023-02-19T04:59:33.272Z,96502.41
2023-02-19T05:02:00.010Z,96504.19
2023-02-19T05:04:26.688Z,96506.00
2023-02-19T05:06:53.184Z,96503.34
2023-02-19T05:09:19.668Z,96505.06
2023-02-19T05:11:46.388Z,96502.41
2023-02-19T05:14:13.024Z,96502.41
2023-02-19T05:16:39.841Z,96506.00
2023-02-19T05:19:06.590Z,96507.72
2023-02-19T05:21:33.277Z,96511.31
2023-02-19T05:23:59.753Z,96513.03
2023-02-19T05:26:26.803Z,96508.56
2023-02-19T05:28:54.282Z,96517.28
2023-02-19T05:31:20.989Z,96516.06
2023-02-19T05:33:51.054Z,96527.34
2023-02-19T05:36:19.753Z,96533.44
2023-02-19T05:38:46.425Z,96536.75
2023-02-19T05:41:14.153Z,96541.00
2023-02-19T05:43:41.434Z,96542.59
2023-02-19T05:46:07.955Z,96541.75
2023-02-19T05:48:34.637Z,96531.22
2023-02-19T05:51:01.927Z,96534.94
2023-02-19T05:53:28.503Z,96529.72
2023-02-19T05:55:54.968Z,96532.59
2023-02-19T05:58:21.645Z,96536.09
2023-02-19T06:00:48.133Z,96537.00
2023-02-19T06:03:14.626Z,96534.34
2023-02-19T06:05:41.064Z,96538.75
2023-02-19T06:08:07.709Z,96544.06
2023-02-19T06:10:34.148Z,96548.53
2023-02-19T06:13:02.281Z,96549.38
2023-02-19T06:15:28.876Z,96554.59
2023-02-19T06:17:55.402Z,96555.44
2023-02-19T06:20:23.277Z,96558.09
2023-02-19T06:22:51.859Z,96561.59
2023-02-19T06:25:19.472Z,96580.09
2023-02-19T06:27:45.960Z,96584.34
2023-02-19T06:30:12.510Z,96592.16
2023-02-19T06:32:40.820Z,96592.91
2023-02-19T06:35:07.478Z,96597.25
2023-02-19T06:37:33.961Z,96600.66
2023-02-19T06:40:00.447Z,96609.53
2023-02-19T06:42:26.886Z,96619.09
2023-02-19T06:44:53.593Z,96614.63
2023-02-19T06:47:20.280Z,96626.97
2023-02-19T06:49:46.742Z,96625.84
2023-02-19T06:52:13.634Z,96630.09
2023-02-19T06:54:40.071Z,96636.16
2023-02-19T06:57:06.793Z,96635.16
2023-02-19T06:59:34.152Z,96635.03
2023-02-19T07:02:00.667Z,96635.69
2023-02-19T07:04:27.232Z,96648.03
2023-02-19T07:06:54.134Z,96642.72
2023-02-19T07:09:20.745Z,96661.06
2023-02-19T07:11:47.310Z,96669.53
2023-02-19T07:14:15.055Z,96685.19
2023-02-19T07:16:41.667Z,96699.16
2023-02-19T07:19:08.263Z,96701.50
2023-02-19T07:21:37.739Z,96710.25
2023-02-19T07:24:05.136Z,96708.44
2023-02-19T07:26:31.723Z,96712.81
2023-02-19T07:28:58.324Z,96730.28
2023-02-19T07:31:25.144Z,96726.56
2023-02-19T07:33:51.829Z,96736.06
2023-02-19T07:36:19.056Z,96741.13
2023-02-19T07:38:45.896Z,96742.81
2023-02-19T07:41:12.833Z,96749.75
2023-02-19T07:43:39.959Z,96764.66
2023-02-19T07:46:10.413Z,96771.31
2023-02-19T07:48:36.954Z,96766.75
2023-02-19T07:51:03.917Z,96783.47
2023-02-19T07:53:30.821Z,96778.16
2023-02-19T07:56:01.776Z,96787.00
2023-02-19T07:58:28.868Z,96804.69
2023-02-19T08:00:55.616Z,96781.38
2023-02-19T08:03:22.575Z,96788.19
2023-02-19T08:05:51.421Z,96804.84
2023-02-19T08:08:17.935Z,96786.88
2023-02-19T08:11:02.903Z,96784.13
2023-02-19T08:13:30.758Z,96782.25
2023-02-19T08:16:16.959Z,96781.31
2023-02-19T08:18:45.932Z,96795.25
2023-02-19T08:21:12.675Z,96806.56
2023-02-19T08:23:39.313Z,96817.97
2023-02-19T08:26:06.124Z,96811.72
2023-02-19T08:28:32.689Z,96826.53
2023-02-19T08:31:03.591Z,96826.13
2023-02-19T08:33:30.807Z,96829.56
2023-02-19T08:35:57.231Z,96827.56
2023-02-19T08:38:23.750Z,96824.81
2023-02-19T08:40:50.291Z,96827.47
2023-02-19T08:43:17.026Z,96832.78
2023-02-19T08:45:44.170Z,96832.78
2023-02-19T08:48:11.094Z,96839.72
2023-02-19T08:50:37.801Z,96847.53
2023-02-19T08:53:04.672Z,96838.47
2023-02-19T08:55:31.703Z,96832.75
2023-02-19T08:57:58.809Z,96832.56
2023-02-19T09:00:25.254Z,96829.69
2023-02-19T09:02:51.723Z,96833.97
2023-02-19T09:05:18.306Z,96836.53
2023-02-19T09:07:44.814Z,96833.66
2023-02-19T09:10:12.194Z,96830.03
2023-02-19T09:12:40.097Z,96832.59
2023-02-19T09:15:06.684Z,96829.84
2023-02-19T09:17:33.206Z,96837.75
2023-02-19T09:19:59.667Z,96841.91
2023-02-19T09:22:26.311Z,96855.03
2023-02-19T09:24:52.777Z,96848.66
2023-02-19T09:27:19.634Z,96853.81
2023-02-19T09:29:46.134Z,96860.75
2023-02-19T09:32:12.673Z,96860.63
2023-02-19T09:34:39.351Z,96858.84
2023-02-19T09:37:06.337Z,96863.13
2023-02-19T09:39:33.156Z,96864.72
2023-02-19T09:42:01.466Z,96869.09
2023-02-19T09:44:29.554Z,96875.09
2023-02-19T09:46:56.158Z,96868.69
2023-02-19T09:49:24.180Z,96882.69
2023-02-19T09:51:52.833Z,96878.94
2023-02-19T09:54:23.141Z,96875.22
2023-02-19T09:56:51.883Z,96873.44
2023-02-19T09:59:22.429Z,96877.69
2023-02-19T10:01:49.339Z,96874.19
2023-02-19T10:04:15.775Z,96868.75
2023-02-19T10:06:42.577Z,96883.78
2023-02-19T10:09:22.841Z,96872.25
2023-02-19T10:11:49.606Z,96890.72
2023-02-19T10:14:23.321Z,96903.00
2023-02-19T10:16:49.853Z,96893.94
2023-02-19T10:19:16.379Z,96909.75
2023-02-19T10:21:42.875Z,96906.84
2023-02-19T10:24:10.488Z,96917.34
2023-02-19T10:26:37.040Z,96926.84
2023-02-19T10:29:03.828Z,96913.50
2023-02-19T10:31:30.864Z,96923.09
2023-02-19T10:33:57.937Z,96915.00
2023-02-19T10:36:25.859Z,96915.75
2023-02-19T10:38:52.285Z,96907.56
2023-02-19T10:41:20.958Z,96913.53
2023-02-19T10:43:55.081Z,96916.97
2023-02-19T10:46:26.682Z,96921.22
2023-02-19T10:49:00.902Z,96916.84
2023-02-19T10:51:31.557Z,96900.09
2023-02-19T10:54:17.757Z,96894.97
2023-02-19T10:56:44.363Z,96889.19
2023-02-19T10:59:26.950Z,96882.25
2023-02-19T11:02:03.962Z,96871.78
2023-02-19T11:04:34.201Z,96873.59
2023-02-19T11:07:10.605Z,96872.84
2023-02-19T11:09:40.847Z,96879.91
2023-02-19T11:12:09.213Z,96898.34
2023-02-19T11:14:36.169Z,96904.44
2023-02-19T11:17:04.846Z,96915.00
2023-02-19T11:19:51.563Z,96920.91
2023-02-19T11:22:18.933Z,96922.59
2023-02-19T11:24:48.126Z,96916.19
2023-02-19T11:27:24.119Z,96922.41
2023-02-19T11:29:50.818Z,96921.41
2023-02-19T11:32:20.382Z,96927.63
2023-02-19T11:34:47.510Z,96922.06
2023-02-19T11:37:17.452Z,96929.03
2023-02-19T11:39:48.121Z,96924.47
2023-02-19T11:42:31.411Z,96923.50
2023-02-19T11:45:11.048Z,96928.75
2023-02-19T11:47:56.253Z,96926.00
2023-02-19T11:50:31.755Z,96920.66
2023-02-19T11:53:04.092Z,96921.59
2023-02-19T11:55:30.657Z,96903.75
2023-02-19T11:58:10.823Z,96901.97
2023-02-19T12:00:41.704Z,96905.41
2023-02-19T12:03:27.117Z,96913.28
2023-02-19T12:05:56.883Z,96916.69
2023-02-19T12:08:42.248Z,96917.44
2023-02-19T12:11:35.196Z,96903.16
2023-02-19T12:14:08.163Z,96904.97
2023-02-19T12:16:43.266Z,96913.63
2023-02-19T12:19:09.937Z,96916.06
2023-02-19T12:21:39.140Z,96915.88
2023-02-19T12:24:17.625Z,96929.13
2023-02-19T12:26:56.829Z,96936.91
2023-02-19T12:29:25.031Z,96937.53
2023-02-19T12:31:54.573Z,96946.31
2023-02-19T12:34:24.665Z,96947.25
2023-02-19T12:36:57.285Z,96944.47
2023-02-19T12:39:26.980Z,96946.31
2023-02-19T12:42:00.237Z,96932.13
2023-02-19T12:44:32.423Z,96933.91
2023-02-19T12:46:59.734Z,96934.03
2023-02-19T12:49:27.569Z,96931.47
2023-02-19T12:51:57.418Z,96936.06
2023-02-19T12:54:28.372Z,96937.97
2023-02-19T12:56:54.914Z,96934.56
2023-02-19T12:59:26.964Z,96940.84
2023-02-19T13:01:58.309Z,96931.34
2023-02-19T13:04:40.367Z,96930.47
2023-02-19T13:07:09.882Z,96923.56
2023-02-19T13:09:49.517Z,96923.66
2023-02-19T13:12:25.139Z,96920.22
2023-02-19T13:15:03.460Z,96930.16
2023-02-19T13:17:41.968Z,96924.91
2023-02-19T13:20:31.866Z,96920.66
2023-02-19T13:23:19.344Z,96917.09
2023-02-19T13:25:51.421Z,96909.19
2023-02-19T13:28:17.867Z,96902.28
2023-02-19T13:31:00.584Z,96902.47
2023-02-19T13:33:31.906Z,96891.97
2023-02-19T13:36:05.906Z,96905.31
2023-02-19T13:38:33.535Z,96909.91
2023-02-19T13:41:00.227Z,96905.50
2023-02-19T13:43:28.024Z,96903.81
2023-02-19T13:45:55.737Z,96910.09
2023-02-19T13:48:25.261Z,96912.91
2023-02-19T13:51:10.686Z,96904.00
2023-02-19T13:53:44.677Z,96900.59
2023-02-19T13:56:34.624Z,96891.84
2023-02-19T13:59:20.037Z,96896.44
2023-02-19T14:01:49.602Z,96903.69
2023-02-19T14:04:19.304Z,96912.66
2023-02-19T14:07:03.972Z,96903.91
2023-02-19T14:09:43.898Z,96890.75
2023-02-19T14:12:10.530Z,96895.34
2023-02-19T14:14:43.451Z,96892.13
2023-02-19T14:17:10.101Z,96885.28
2023-02-19T14:19:42.385Z,96882.94
2023-02-19T14:22:27.785Z,96898.72
2023-02-19T14:24:54.258Z,96894.34
2023-02-19T14:27:21.145Z,96915.69
2023-02-19T14:29:47.765Z,96914.06
2023-02-19T14:32:18.420Z,96916.00
2023-02-19T14:34:45.063Z,96923.09
2023-02-19T14:37:16.310Z,96918.75
2023-02-19T14:39:43.632Z,96912.53
2023-02-19T14:42:15.751Z,96918.00
2023-02-19T14:44:47.420Z,96918.00
2023-02-19T14:47:14.625Z,96924.25
2023-02-19T14:49:45.736Z,96922.56
2023-02-19T14:52:17.727Z,96924.34
2023-02-19T14:54:57.312Z,96926.28
2023-02-19T14:57:25.722Z,96928.19
2023-02-19T14:59:54.048Z,96923.81
2023-02-19T15:02:25.858Z,96932.84
2023-02-19T15:04:52.510Z,96947.06
2023-02-19T15:07:21.018Z,96948.00
2023-02-19T15:09:48.345Z,96951.63
2023-02-19T15:12:24.616Z,96950.88
2023-02-19T15:14:51.687Z,96947.34
2023-02-19T15:17:27.384Z,96937.66
2023-02-19T15:19:54.421Z,96954.56
2023-02-19T15:22:22.488Z,96940.50
2023-02-19T15:24:48.970Z,96950.31
2023-02-19T15:27:19.443Z,96951.25
2023-02-19T15:29:46.714Z,96957.53
2023-02-19T15:32:21.795Z,96957.53
2023-02-19T15:34:58.653Z,96949.66
2023-02-19T15:37:25.971Z,96946.13
2023-02-19T15:39:52.684Z,96961.28
2023-02-19T15:42:26.811Z,96951.59
2023-02-19T15:45:01.945Z,96952.59
2023-02-19T15:47:33.336Z,96945.44
2023-02-19T15:50:02.880Z,96943.84
2023-02-19T15:52:49.000Z,96948.28
2023-02-19T15:55:21.499Z,96955.53
2023-02-19T15:57:50.834Z,96960.00
2023-02-19T16:00:19.229Z,96952.00
2023-02-19T16:02:46.227Z,96957.44
2023-02-19T16:05:13.981Z,96946.75
2023-02-19T16:07:40.612Z,96957.53
2023-02-19T16:10:17.797Z,96962.00
2023-02-19T16:12:44.255Z,96965.63
2023-02-19T16:15:14.228Z,96968.28
2023-02-19T16:17:44.100Z,96967.53
2023-02-19T16:20:17.775Z,96973.81
2023-02-19T16:22:44.489Z,96973.81
2023-02-19T16:25:21.787Z,96966.78
2023-02-19T16:27:48.303Z,96976.56
2023-02-19T16:30:17.850Z,96967.81
2023-02-19T16:32:47.136Z,96967.94
2023-02-19T16:35:32.567Z,96970.59
2023-02-19T16:37:59.321Z,96978.59
2023-02-19T16:40:35.065Z,96990.25
2023-02-19T16:43:23.735Z,97000.06
2023-02-19T16:45:50.407Z,97007.22
2023-02-19T16:48:16.852Z,97012.53
2023-02-19T16:50:43.388Z,97011.78
2023-02-19T16:53:20.571Z,97017.09
2023-02-19T16:55:47.064Z,97023.38
2023-02-19T16:58:13.769Z,97025.19
2023-02-19T17:00:40.667Z,97035.00
2023-02-19T17:03:10.838Z,97036.78
2023-02-19T17:05:37.497Z,97036.91
2023-02-19T17:08:04.687Z,97045.81
2023-02-19T17:10:34.292Z,97044.00
2023-02-19T17:13:00.727Z,97035.34
2023-02-19T17:15:27.251Z,97041.72
2023-02-19T17:17:54.317Z,97053.22
2023-02-19T17:20:27.433Z,97047.06
2023-02-19T17:22:54.441Z,97064.84
2023-02-19T17:25:21.760Z,97073.69
2023-02-19T17:27:48.229Z,97070.94
2023-02-19T17:30:23.586Z,97071.88
2023-02-19T17:32:50.102Z,97071.03
2023-02-19T17:35:16.532Z,97068.34
2023-02-19T17:37:43.124Z,97072.84
2023-02-19T17:40:30.698Z,97079.97
2023-02-19T17:42:59.113Z,97091.56
2023-02-19T17:45:25.660Z,97096.03
2023-02-19T17:47:53.139Z,97099.63
2023-02-19T17:50:20.980Z,97094.31
2023-02-19T17:52:47.431Z,97096.97
2023-02-19T17:55:15.724Z,97102.31
2023-02-19T17:57:42.868Z,97115.25
2023-02-19T18:00:10.940Z,97127.25
2023-02-19T18:02:40.771Z,97136.88
2023-02-19T18:05:08.022Z,97128.78
2023-02-19T18:07:34.549Z,97127.94
2023-02-19T18:10:01.468Z,97129.75
2023-02-19T18:12:28.468Z,97132.50
2023-02-19T18:14:56.564Z,97136.09
2023-02-19T18:17:23.700Z,97138.97
2023-02-19T18:19:52.760Z,97133.72
2023-02-19T18:22:19.408Z,97141.88
2023-02-19T18:24:46.732Z,97138.44
2023-02-19T18:27:13.610Z,97144.75
2023-02-19T18:29:40.352Z,97143.91
2023-02-19T18:32:06.962Z,97151.13
2023-02-19T18:34:34.223Z,97150.34
2023-02-19T18:37:00.988Z,97154.81
2023-02-19T18:39:27.416Z,97158.44
2023-02-19T18:41:53.986Z,97159.34
2023-02-19T18:44:21.013Z,97157.66
2023-02-19T18:46:47.760Z,97167.44
2023-02-19T18:49:14.456Z,97163.06
2023-02-19T18:51:41.157Z,97172.88
2023-02-19T18:54:07.928Z,97171.16
2023-02-19T18:56:41.081Z,97166.78
2023-02-19T18:59:07.812Z,97167.63
2023-02-19T19:01:34.263Z,97173.03
2023-02-19T19:04:00.954Z,97168.69
2023-02-19T19:06:27.518Z,97178.44
2023-02-19T19:08:54.041Z,97171.41
2023-02-19T19:11:22.636Z,97170.56
2023-02-19T19:13:49.152Z,97172.34
2023-02-19T19:16:15.586Z,97172.34
2023-02-19T19:18:42.195Z,97176.81
2023-02-19T19:21:09.593Z,97169.78
2023-02-19T19:23:36.316Z,97170.66
2023-02-19T19:26:06.111Z,97167.22
2023-02-19T19:28:33.066Z,97172.44
2023-02-19T19:30:59.839Z,97168.94
2023-02-19T19:33:28.017Z,97169.88
2023-02-19T19:35:55.100Z,97163.69
2023-02-19T19:38:21.554Z,97164.56
2023-02-19T19:40:48.145Z,97161.97
2023-02-19T19:43:15.026Z,97163.69
2023-02-19T19:45:41.493Z,97161.91
2023-02-19T19:48:08.096Z,97167.22
2023-02-19T19:50:35.112Z,97155.81
2023-02-19T19:53:01.643Z,97158.34
2023-02-19T19:55:28.265Z,97163.78
2023-02-19T19:57:54.789Z,97165.56
2023-02-19T20:00:23.393Z,97164.66
2023-02-19T20:02:49.944Z,97172.72
2023-02-19T20:05:16.957Z,97186.03
2023-02-19T20:07:44.448Z,97185.09
2023-02-19T20:10:12.886Z,97192.19
2023-02-19T20:12:40.087Z,97186.09
2023-02-19T20:15:07.113Z,97191.34
2023-02-19T20:17:33.680Z,97190.50
2023-02-19T20:20:00.265Z,97192.19
2023-02-19T20:22:26.816Z,97187.00
2023-02-19T20:24:53.720Z,97188.69
2023-02-19T20:27:20.898Z,97186.03
2023-02-19T20:29:47.446Z,97186.09
2023-02-19T20:32:14.884Z,97182.59
2023-02-19T20:34:41.338Z,97187.06
2023-02-19T20:37:07.823Z,97187.91
2023-02-19T20:39:34.693Z,97187.91
2023-02-19T20:42:02.111Z,97192.41
2023-02-19T20:44:29.053Z,97189.72
2023-02-19T20:46:56.046Z,97188.88
2023-02-19T20:49:23.240Z,97195.06
2023-02-19T20:51:54.780Z,97195.06
2023-02-19T20:54:22.506Z,97198.66
2023-02-19T20:56:53.003Z,97196.00
2023-02-19T20:59:20.483Z,97201.31
2023-02-19T21:01:47.419Z,97207.53
2023-02-19T21:04:14.326Z,97208.44
2023-02-19T21:06:41.458Z,97205.78
2023-02-19T21:09:07.983Z,97203.97
2023-02-19T21:11:34.579Z,97205.78
2023-02-19T21:14:01.301Z,97207.53
2023-02-19T21:16:28.735Z,97209.31
2023-02-19T21:18:55.521Z,97210.25
2023-02-19T21:21:25.291Z,97207.59
2023-02-19T21:23:54.292Z,97208.44
2023-02-19T21:26:21.074Z,97207.59
2023-02-19T21:28:52.155Z,97207.59
2023-02-19T21:31:19.244Z,97196.06
2023-02-19T21:33:45.701Z,97205.88
2023-02-19T21:36:12.496Z,97211.19
2023-02-19T21:38:39.331Z,97206.84
2023-02-19T21:41:05.914Z,97212.16
2023-02-19T21:43:32.352Z,97204.16
2023-02-19T21:45:58.992Z,97197.97
2023-02-19T21:48:25.504Z,97203.28
2023-02-19T21:50:52.008Z,97201.59
2023-02-19T21:53:18.458Z,97198.94
2023-02-19T21:55:57.724Z,97199.00
2023-02-19T21:58:24.559Z,97196.34
2023-02-19T22:00:51.043Z,97209.66
2023-02-19T22:03:18.163Z,97207.00
2023-02-19T22:05:44.634Z,97208.81
2023-02-19T22:08:11.118Z,97204.34
2023-02-19T22:10:40.789Z,97206.16
2023-02-19T22:13:07.356Z,97196.44
2023-02-19T22:15:33.839Z,97201.75
2023-02-19T22:18:00.475Z,97207.97
2023-02-19T22:20:26.983Z,97208.88
2023-02-19T22:22:53.456Z,97221.25
2023-02-19T22:25:20.238Z,97221.25
2023-02-19T22:27:47.475Z,97220.38
2023-02-19T22:30:14.186Z,97226.59
2023-02-19T22:32:41.340Z,97222.19
2023-02-19T22:35:08.111Z,97214.13
2023-02-19T22:37:34.730Z,97215.06
2023-02-19T22:40:02.163Z,97211.28
2023-02-19T22:42:29.342Z,97213.78
2023-02-19T22:44:55.836Z,97223.38
2023-02-19T22:47:22.347Z,97215.41
2023-02-19T22:49:49.323Z,97222.44
2023-02-19T22:52:15.824Z,97228.72
2023-02-19T22:54:42.256Z,97227.84
2023-02-19T22:57:08.773Z,97219.09
2023-02-19T22:59:35.240Z,97225.34
2023-02-19T23:02:01.758Z,97231.63
2023-02-19T23:04:28.422Z,97228.28
2023-02-19T23:06:55.072Z,97231.91
2023-02-19T23:09:27.289Z,97239.00
2023-02-19T23:11:54.182Z,97244.44
2023-02-19T23:14:21.227Z,97238.25
2023-02-19T23:16:47.763Z,97234.78
2023-02-19T23:19:15.117Z,97234.78
2023-02-19T23:21:42.389Z,97233.09
2023-02-19T23:24:09.317Z,97235.75
2023-02-19T23:26:35.959Z,97233.16
2023-02-19T23:29:02.430Z,97229.66
2023-02-19T23:31:29.057Z,97240.28
2023-02-19T23:33:55.920Z,97243.03
2023-02-19T23:36:23.833Z,97243.88
2023-02-19T23:38:50.376Z,97239.53
2023-02-19T23:41:17.327Z,97244.84
2023-02-19T23:43:43.784Z,97244.94
2023-02-19T23:46:13.253Z,97246.63
2023-02-19T23:48:40.076Z,97247.59
2023-02-19T23:51:07.873Z,97246.75
2023-02-19T23:53:34.403Z,97239.69
2023-02-19T23:56:00.956Z,97236.16
2023-02-19T23:58:27.409Z,97238.84
